PWSweather.com
Personal Weather Stations
Station Observations
MDHALE1
Southwest Baltimore Co., Halethorpe, MD 21227

Southwest Baltimore Co.Halethorpe, MD 21227

Lat: 39.23643, Lon: -76.696959

Elevation: 86

Station Type: Davis Vantage Pro2+

http://www.halethorpeweather.com

Latest ConditionsUpdated 10:00:06 AM EDT Tuesday, Sep 1, 2015
Currently Today's Max Today's Min Today's Average
Temperature 83.7°F28.7°C 83.7°F28.7°C 68.2°F20.1°C 71.1°F21.7°C
Dew Point 67.8°F19.9°C 68.8°F20.4°C 64.6°F18.1°C 66.2°F19.0°C
Winds 5.8 mph N9.3 kmh N 6.9 mph N11.1 kmh N - 0.5 mph 0.8 kmh
Wind Gusts 6.9 mph11.1 kmh 10.4 mph16.7 kmh - -
Humidity 59% 92% 59% 85%
Pressure 30.05 in1017.6 mb 30.05 in1017.6 mb 30.00 in1015.9 mb -
Hour Temp Dew Point Humidity Winds Wind Gusts Pressure Precip Precip Rate Daily Precip Total
10:00 AM 83.7°F28.7°C 67.8°F19.9°C 59% 5.8 mph N9.3 kmh N 6.9 mph11.1 kmh 30.05 in1017.6 mb - 0.00 in0.0 mm 0.00 in0.0 mm
09:45 AM 81.7°F27.6°C 68.8°F20.4°C 65% 3.5 mph NE5.6 kmh NE 8.1 mph13.0 kmh 30.04 in1017.3 mb - 0.00 in0.0 mm 0.00 in0.0 mm
09:30 AM 79.5°F26.4°C 68.4°F20.2°C 69% 6.9 mph N11.1 kmh N 10.4 mph16.7 kmh 30.04 in1017.3 mb - 0.00 in0.0 mm 0.00 in0.0 mm
09:15 AM 76.5°F24.7°C 68.4°F20.2°C 76% 4.6 mph N7.4 kmh N 5.8 mph9.3 kmh 30.04 in1017.3 mb - 0.00 in0.0 mm 0.00 in0.0 mm
09:00 AM 73.9°F23.3°C 68.0°F20.0°C 82% Calm Calm -- 30.04 in1017.3 mb - 0.00 in0.0 mm 0.00 in0.0 mm
08:45 AM 72.3°F22.4°C 68.5°F20.3°C 88% Calm Calm -- 30.04 in1017.3 mb - 0.00 in0.0 mm 0.00 in0.0 mm
08:30 AM 71.1°F21.7°C 68.3°F20.2°C 91% Calm Calm -- 30.04 in1017.3 mb - 0.00 in0.0 mm 0.00 in0.0 mm
08:15 AM 70.1°F21.2°C 67.7°F19.8°C 92% Calm Calm -- 30.04 in1017.3 mb - 0.00 in0.0 mm 0.00 in0.0 mm
08:04 AM 69.6°F20.9°C 67.2°F19.6°C 92% Calm Calm -- 30.04 in1017.3 mb - 0.00 in0.0 mm 0.00 in0.0 mm
08:00 AM 69.4°F20.8°C 67.0°F19.4°C 92% Calm Calm -- 30.03 in1016.9 mb - 0.00 in0.0 mm 0.00 in0.0 mm
07:45 AM 68.8°F20.4°C 66.1°F18.9°C 91% Calm Calm -- 30.03 in1016.9 mb - 0.00 in0.0 mm 0.00 in0.0 mm
07:30 AM 68.3°F20.2°C 65.6°F18.7°C 91% Calm Calm -- 30.03 in1016.9 mb - 0.00 in0.0 mm 0.00 in0.0 mm
07:15 AM 68.2°F20.1°C 65.5°F18.6°C 91% Calm Calm -- 30.02 in1016.6 mb - 0.00 in0.0 mm 0.00 in0.0 mm
07:00 AM 68.2°F20.1°C 65.5°F18.6°C 91% Calm Calm -- 30.02 in1016.6 mb - 0.00 in0.0 mm 0.00 in0.0 mm
06:45 AM 68.3°F20.2°C 65.6°F18.7°C 91% Calm Calm -- 30.01 in1016.3 mb - 0.00 in0.0 mm 0.00 in0.0 mm
06:30 AM 68.4°F20.2°C 65.4°F18.6°C 90% Calm Calm -- 30.01 in1016.3 mb - 0.00 in0.0 mm 0.00 in0.0 mm
06:15 AM 68.6°F20.3°C 65.5°F18.6°C 90% Calm Calm -- 30.01 in1016.3 mb - 0.00 in0.0 mm 0.00 in0.0 mm
06:00 AM 69.0°F20.6°C 65.9°F18.8°C 90% Calm Calm -- 30.00 in1015.9 mb - 0.00 in0.0 mm 0.00 in0.0 mm
05:45 AM 69.2°F20.7°C 66.1°F18.9°C 90% Calm Calm -- 30.00 in1015.9 mb - 0.00 in0.0 mm 0.00 in0.0 mm
05:30 AM 69.3°F20.7°C 65.9°F18.8°C 89% Calm Calm -- 30.00 in1015.9 mb - 0.00 in0.0 mm 0.00 in0.0 mm
05:15 AM 69.5°F20.8°C 66.1°F18.9°C 89% Calm Calm -- 30.00 in1015.9 mb - 0.00 in0.0 mm 0.00 in0.0 mm
05:00 AM 69.6°F20.9°C 66.2°F19.0°C 89% Calm Calm -- 30.00 in1015.9 mb - 0.00 in0.0 mm 0.00 in0.0 mm
04:45 AM 69.8°F21.0°C 66.4°F19.1°C 89% Calm Calm -- 30.00 in1015.9 mb - 0.00 in0.0 mm 0.00 in0.0 mm
04:30 AM 69.9°F21.1°C 66.2°F19.0°C 88% Calm Calm -- 30.01 in1016.3 mb - 0.00 in0.0 mm 0.00 in0.0 mm
04:15 AM 70.1°F21.2°C 66.4°F19.1°C 88% Calm Calm -- 30.01 in1016.3 mb - 0.00 in0.0 mm 0.00 in0.0 mm
04:00 AM 70.3°F21.3°C 66.6°F19.2°C 88% Calm Calm -- 30.01 in1016.3 mb - 0.00 in0.0 mm 0.00 in0.0 mm
03:45 AM 70.4°F21.3°C 66.7°F19.3°C 88% Calm Calm -- 30.01 in1016.3 mb - 0.00 in0.0 mm 0.00 in0.0 mm
03:30 AM 70.3°F21.3°C 66.2°F19.0°C 87% Calm Calm 1.2 mph1.9 kmh 30.01 in1016.3 mb - 0.00 in0.0 mm 0.00 in0.0 mm
03:15 AM 70.3°F21.3°C 65.9°F18.8°C 86% Calm Calm -- 30.01 in1016.3 mb - 0.00 in0.0 mm 0.00 in0.0 mm
03:00 AM 70.4°F21.3°C 66.0°F18.9°C 86% Calm Calm -- 30.01 in1016.3 mb - 0.00 in0.0 mm 0.00 in0.0 mm
02:45 AM 70.4°F21.3°C 65.7°F18.7°C 85% Calm Calm -- 30.01 in1016.3 mb - 0.00 in0.0 mm 0.00 in0.0 mm
02:30 AM 70.4°F21.3°C 65.7°F18.7°C 85% Calm Calm -- 30.02 in1016.6 mb - 0.00 in0.0 mm 0.00 in0.0 mm
02:15 AM 70.4°F21.3°C 65.3°F18.5°C 84% Calm Calm -- 30.02 in1016.6 mb - 0.00 in0.0 mm 0.00 in0.0 mm
02:00 AM 70.4°F21.3°C 65.0°F18.3°C 83% Calm Calm -- 30.02 in1016.6 mb - 0.00 in0.0 mm 0.00 in0.0 mm
01:45 AM 70.6°F21.4°C 65.2°F18.4°C 83% Calm Calm -- 30.02 in1016.6 mb - 0.00 in0.0 mm 0.00 in0.0 mm
01:30 AM 70.8°F21.6°C 65.0°F18.3°C 82% Calm Calm -- 30.02 in1016.6 mb - 0.00 in0.0 mm 0.00 in0.0 mm
01:15 AM 71.0°F21.7°C 64.9°F18.3°C 81% Calm Calm -- 30.02 in1016.6 mb - 0.00 in0.0 mm 0.00 in0.0 mm
01:00 AM 71.2°F21.8°C 64.7°F18.2°C 80% Calm Calm -- 30.03 in1016.9 mb - 0.00 in0.0 mm 0.00 in0.0 mm
12:45 AM 71.3°F21.8°C 64.8°F18.2°C 80% Calm Calm -- 30.03 in1016.9 mb - 0.00 in0.0 mm 0.00 in0.0 mm
12:30 AM 71.6°F22.0°C 64.7°F18.2°C 79% Calm Calm -- 30.03 in1016.9 mb - 0.00 in0.0 mm 0.00 in0.0 mm
12:15 AM 71.9°F22.2°C 64.7°F18.2°C 78% Calm Calm -- 30.03 in1016.9 mb - 0.00 in0.0 mm 0.00 in0.0 mm
12:01 AM 72.2°F22.3°C 64.6°F18.1°C 77% Calm Calm -- 30.03 in1016.9 mb - 0.00 in0.0 mm 0.00 in0.0 mm